createdAt,value
2018-09-30T00:01:34.850Z,1.27
2018-09-30T00:04:04.029Z,1.40
2018-09-30T00:06:33.195Z,1.60
2018-09-30T00:09:02.385Z,1.53
2018-09-30T00:11:31.538Z,1.20
2018-09-30T00:14:00.706Z,1.60
2018-09-30T00:16:29.843Z,1.60
2018-09-30T00:18:59.027Z,1.60
2018-09-30T00:21:28.245Z,1.60
2018-09-30T00:24:02.409Z,1.60
2018-09-30T00:26:36.589Z,1.40
2018-09-30T00:29:05.784Z,1.37
2018-09-30T00:31:35.195Z,1.40
2018-09-30T00:34:09.572Z,1.40
2018-09-30T00:36:38.800Z,1.30
2018-09-30T00:39:08.089Z,1.53
2018-09-30T00:41:37.237Z,1.30
2018-09-30T00:44:06.461Z,1.83
2018-09-30T00:46:35.556Z,1.50
2018-09-30T00:49:04.729Z,1.53
2018-09-30T00:51:33.876Z,1.50
2018-09-30T00:54:03.351Z,1.63
2018-09-30T00:56:32.578Z,1.40
2018-09-30T00:59:01.783Z,1.53
2018-09-30T01:01:30.977Z,1.57
2018-09-30T01:04:00.141Z,1.60
2018-09-30T01:06:29.283Z,1.40
2018-09-30T01:08:58.486Z,1.60
2018-09-30T01:11:27.622Z,1.67
2018-09-30T01:13:56.775Z,2.10
2018-09-30T01:16:26.861Z,1.70
2018-09-30T01:18:56.074Z,1.73
2018-09-30T01:21:25.232Z,1.90
2018-09-30T01:23:54.520Z,1.97
2018-09-30T01:26:23.726Z,2.10
2018-09-30T01:28:52.953Z,1.77
2018-09-30T01:31:22.123Z,1.70
2018-09-30T01:33:51.308Z,1.67
2018-09-30T01:36:20.428Z,1.63
2018-09-30T01:38:49.603Z,1.90
2018-09-30T01:41:18.738Z,1.70
2018-09-30T01:43:47.892Z,1.60
2018-09-30T01:46:17.082Z,1.53
2018-09-30T01:48:46.172Z,1.70
2018-09-30T01:51:15.333Z,1.60
2018-09-30T01:53:44.489Z,1.50
2018-09-30T01:56:13.676Z,1.50
2018-09-30T01:58:42.809Z,1.60
2018-09-30T02:01:12.002Z,1.43
2018-09-30T02:03:41.149Z,1.40
2018-09-30T02:06:10.322Z,1.93
2018-09-30T02:08:39.475Z,2.00
2018-09-30T02:11:08.659Z,1.80
2018-09-30T02:13:37.788Z,1.70
2018-09-30T02:16:07.001Z,1.53
2018-09-30T02:18:36.110Z,2.07
2018-09-30T02:21:05.288Z,2.03
2018-09-30T02:23:34.442Z,2.10
2018-09-30T02:26:03.628Z,1.80
2018-09-30T02:28:32.792Z,2.10
2018-09-30T02:31:01.986Z,2.00
2018-09-30T02:33:31.117Z,2.00
2018-09-30T02:36:00.293Z,1.50
2018-09-30T02:38:29.456Z,1.63
2018-09-30T02:40:58.636Z,1.50
2018-09-30T02:43:27.716Z,2.07
2018-09-30T02:45:56.958Z,1.70
2018-09-30T02:48:26.092Z,1.70
2018-09-30T02:50:55.273Z,1.83
2018-09-30T02:53:24.532Z,2.03
2018-09-30T02:55:53.693Z,1.67
2018-09-30T02:58:22.823Z,1.30
2018-09-30T03:00:52.001Z,2.00
2018-09-30T03:03:21.164Z,1.80
2018-09-30T03:05:50.336Z,1.73
2018-09-30T03:08:24.488Z,1.70
2018-09-30T03:10:53.685Z,1.67
2018-09-30T03:13:22.813Z,1.83
2018-09-30T03:15:52.043Z,2.03
2018-09-30T03:18:21.184Z,2.00
2018-09-30T03:20:50.368Z,2.03
2018-09-30T03:23:19.532Z,1.83
2018-09-30T03:25:48.697Z,1.83
2018-09-30T03:28:17.846Z,2.30
2018-09-30T03:30:47.026Z,1.77
2018-09-30T03:33:16.171Z,1.67
2018-09-30T03:35:45.354Z,1.97
2018-09-30T03:38:14.546Z,1.80
2018-09-30T03:40:43.717Z,2.27
2018-09-30T03:43:12.855Z,1.70
2018-09-30T03:45:42.047Z,1.60
2018-09-30T03:48:11.192Z,1.70
2018-09-30T03:50:40.379Z,1.70
2018-09-30T03:53:09.529Z,1.90
2018-09-30T03:55:38.761Z,1.90
2018-09-30T03:58:07.950Z,1.73
2018-09-30T04:00:37.224Z,1.37
2018-09-30T04:03:06.471Z,1.60
2018-09-30T04:05:35.657Z,1.70
2018-09-30T04:08:04.799Z,2.00
2018-09-30T04:10:33.984Z,2.00
2018-09-30T04:13:03.114Z,2.03
2018-09-30T04:15:32.379Z,2.10
2018-09-30T04:18:01.540Z,2.13
2018-09-30T04:20:30.729Z,2.07
2018-09-30T04:22:59.865Z,2.60
2018-09-30T04:25:29.034Z,2.67
2018-09-30T04:27:58.218Z,2.83
2018-09-30T04:30:27.387Z,2.53
2018-09-30T04:32:56.540Z,2.10
2018-09-30T04:35:25.662Z,1.90
2018-09-30T04:37:54.932Z,2.07
2018-09-30T04:40:24.322Z,1.80
2018-09-30T04:42:53.579Z,1.63
2018-09-30T04:45:22.736Z,1.90
2018-09-30T04:47:51.911Z,1.87
2018-09-30T04:50:21.045Z,1.80
2018-09-30T04:52:50.266Z,1.90
2018-09-30T04:55:19.395Z,1.70
2018-09-30T04:57:48.597Z,2.03
2018-09-30T05:00:17.725Z,1.77
2018-09-30T05:02:46.905Z,2.00
2018-09-30T05:05:16.040Z,2.20
2018-09-30T05:07:45.214Z,2.33
2018-09-30T05:10:14.365Z,1.77
2018-09-30T05:12:43.556Z,1.87
2018-09-30T05:15:12.729Z,1.77
2018-09-30T05:17:41.938Z,1.90
2018-09-30T05:20:11.073Z,2.03
2018-09-30T05:22:40.312Z,1.80
2018-09-30T05:25:09.451Z,1.90
2018-09-30T05:27:38.627Z,2.10
2018-09-30T05:30:07.803Z,2.07
2018-09-30T05:32:36.932Z,2.00
2018-09-30T05:35:06.222Z,1.80
2018-09-30T05:37:35.398Z,1.87
2018-09-30T05:40:05.484Z,1.87
2018-09-30T05:42:34.655Z,2.10
2018-09-30T05:45:04.370Z,2.13
2018-09-30T05:47:33.553Z,1.93
2018-09-30T05:50:03.394Z,2.07
2018-09-30T05:52:32.558Z,1.67
2018-09-30T05:55:01.705Z,1.60
2018-09-30T05:57:30.956Z,1.80
2018-09-30T06:00:00.071Z,1.67
2018-09-30T06:02:29.240Z,2.10
2018-09-30T06:04:58.378Z,1.90
2018-09-30T06:07:27.598Z,2.30
2018-09-30T06:09:56.779Z,1.93
2018-09-30T06:12:25.940Z,2.00
2018-09-30T06:14:55.131Z,2.20
2018-09-30T06:17:24.318Z,2.50
2018-09-30T06:19:53.454Z,2.80
2018-09-30T06:22:22.623Z,2.90
2018-09-30T06:24:51.772Z,2.80
2018-09-30T06:27:20.972Z,2.60
2018-09-30T06:29:50.122Z,2.87
2018-09-30T06:32:19.310Z,2.60
2018-09-30T06:34:48.445Z,2.50
2018-09-30T06:37:17.628Z,2.90
2018-09-30T06:39:46.784Z,2.87
2018-09-30T06:42:15.945Z,2.53
2018-09-30T06:44:45.168Z,2.53
2018-09-30T06:47:14.333Z,2.93
2018-09-30T06:49:43.470Z,3.23
2018-09-30T06:52:12.635Z,2.60
2018-09-30T06:54:41.779Z,2.90
2018-09-30T06:57:10.943Z,2.87
2018-09-30T06:59:40.101Z,3.07
2018-09-30T07:02:09.265Z,3.30
2018-09-30T07:04:38.401Z,3.40
2018-09-30T07:07:07.583Z,2.67
2018-09-30T07:09:36.791Z,2.57
2018-09-30T07:12:05.948Z,2.53
2018-09-30T07:14:35.140Z,2.50
2018-09-30T07:17:04.276Z,3.27
2018-09-30T07:19:33.465Z,2.57
2018-09-30T07:22:02.618Z,3.27
2018-09-30T07:24:31.810Z,2.63
2018-09-30T07:27:00.983Z,3.13
2018-09-30T07:29:30.165Z,2.87
2018-09-30T07:31:59.285Z,2.53
2018-09-30T07:34:28.476Z,2.13
2018-09-30T07:36:57.618Z,1.90
2018-09-30T07:39:26.863Z,1.80
2018-09-30T07:41:56.005Z,2.13
2018-09-30T07:44:25.216Z,2.00
2018-09-30T07:46:54.401Z,1.63
2018-09-30T07:49:23.542Z,1.80
2018-09-30T07:51:52.698Z,1.60
2018-09-30T07:54:21.984Z,1.60
2018-09-30T07:56:51.100Z,1.70
2018-09-30T07:59:20.262Z,1.60
2018-09-30T08:01:49.386Z,1.30
2018-09-30T08:04:18.736Z,1.60
2018-09-30T08:06:47.864Z,1.67
2018-09-30T08:09:17.049Z,1.30
2018-09-30T08:11:46.183Z,1.83
2018-09-30T08:14:15.349Z,1.63
2018-09-30T08:16:44.651Z,1.50
2018-09-30T08:19:13.818Z,1.90
2018-09-30T08:21:42.952Z,1.43
2018-09-30T08:24:12.155Z,1.97
2018-09-30T08:26:41.321Z,1.60
2018-09-30T08:29:10.550Z,1.77
2018-09-30T08:31:39.754Z,1.60
2018-09-30T08:34:08.920Z,1.90
2018-09-30T08:36:38.087Z,1.90
2018-09-30T08:39:08.996Z,1.63
2018-09-30T08:41:38.272Z,1.80
2018-09-30T08:44:07.571Z,1.97
2018-09-30T08:46:36.702Z,1.70
2018-09-30T08:49:06.047Z,1.33
2018-09-30T08:51:35.197Z,1.53
2018-09-30T08:54:04.380Z,1.50
2018-09-30T08:56:33.513Z,1.40
2018-09-30T08:59:02.677Z,1.60
2018-09-30T09:01:31.810Z,1.43
2018-09-30T09:04:01.022Z,1.20
2018-09-30T09:06:30.175Z,1.53
2018-09-30T09:08:59.328Z,1.20
2018-09-30T09:11:28.449Z,1.20
2018-09-30T09:13:57.608Z,1.40
2018-09-30T09:16:26.737Z,1.43
2018-09-30T09:18:55.901Z,1.50
2018-09-30T09:21:25.027Z,1.23
2018-09-30T09:23:54.219Z,1.47
2018-09-30T09:26:23.360Z,1.30
2018-09-30T09:28:52.521Z,1.30
2018-09-30T09:31:21.686Z,1.40
2018-09-30T09:33:50.862Z,1.10
2018-09-30T09:36:20.010Z,1.37
2018-09-30T09:38:49.237Z,1.20
2018-09-30T09:41:18.384Z,1.60
2018-09-30T09:43:47.550Z,1.23
2018-09-30T09:46:16.730Z,1.13
2018-09-30T09:48:45.846Z,1.10
2018-09-30T09:51:15.079Z,1.50
2018-09-30T09:53:44.213Z,1.20
2018-09-30T09:56:13.393Z,1.20
2018-09-30T09:58:42.521Z,1.30
2018-09-30T10:01:11.870Z,1.40
2018-09-30T10:03:41.031Z,1.20
2018-09-30T10:06:10.204Z,1.03
2018-09-30T10:08:39.462Z,1.30
2018-09-30T10:11:08.625Z,1.53
2018-09-30T10:13:37.760Z,1.53
2018-09-30T10:16:06.944Z,1.30
2018-09-30T10:18:36.275Z,1.20
2018-09-30T10:21:05.432Z,1.30
2018-09-30T10:23:34.594Z,1.47
2018-09-30T10:26:03.838Z,1.20
2018-09-30T10:28:32.979Z,1.30
2018-09-30T10:31:02.182Z,1.50
2018-09-30T10:33:31.326Z,1.40
2018-09-30T10:36:00.469Z,1.10
2018-09-30T10:38:29.652Z,1.30
2018-09-30T10:40:58.821Z,1.60
2018-09-30T10:43:28.262Z,1.57
2018-09-30T10:45:57.742Z,1.80
2018-09-30T10:48:26.973Z,1.40
2018-09-30T10:50:56.192Z,1.53
2018-09-30T10:53:25.332Z,1.47
2018-09-30T10:55:54.504Z,1.47
2018-09-30T10:58:23.637Z,1.40
2018-09-30T11:00:52.818Z,1.20
2018-09-30T11:03:22.016Z,1.40
2018-09-30T11:05:51.178Z,1.30
2018-09-30T11:08:20.306Z,1.63
2018-09-30T11:10:49.484Z,1.90
2018-09-30T11:13:18.634Z,1.47
2018-09-30T11:15:47.815Z,1.43
2018-09-30T11:18:17.016Z,1.50
2018-09-30T11:20:46.292Z,1.73
2018-09-30T11:23:15.428Z,1.43
2018-09-30T11:25:44.613Z,1.10
2018-09-30T11:28:13.759Z,1.10
2018-09-30T11:30:42.946Z,1.50
2018-09-30T11:33:12.084Z,1.37
2018-09-30T11:35:41.291Z,1.33
2018-09-30T11:38:10.500Z,1.60
2018-09-30T11:40:39.647Z,1.77
2018-09-30T11:43:08.802Z,1.50
2018-09-30T11:45:37.842Z,1.73
2018-09-30T11:48:06.988Z,1.87
2018-09-30T11:50:36.173Z,1.40
2018-09-30T11:53:05.322Z,1.90
2018-09-30T11:55:34.511Z,1.33
2018-09-30T11:58:03.687Z,1.33
2018-09-30T12:00:32.905Z,1.50
2018-09-30T12:03:02.057Z,1.50
2018-09-30T12:05:31.240Z,1.30
2018-09-30T12:08:00.422Z,1.40
2018-09-30T12:10:29.579Z,1.67
2018-09-30T12:12:58.816Z,1.60
2018-09-30T12:15:27.972Z,1.60
2018-09-30T12:17:57.172Z,1.60
2018-09-30T12:20:26.331Z,1.73
2018-09-30T12:22:55.517Z,1.73
2018-09-30T12:25:24.808Z,1.40
2018-09-30T12:27:54.022Z,1.70
2018-09-30T12:30:23.305Z,1.90
2018-09-30T12:32:52.729Z,1.63
2018-09-30T12:35:22.720Z,1.70
2018-09-30T12:37:51.953Z,1.60
2018-09-30T12:40:21.161Z,1.70
2018-09-30T12:42:50.400Z,1.70
2018-09-30T12:45:19.565Z,2.00
2018-09-30T12:47:49.041Z,1.80
2018-09-30T12:50:18.186Z,1.83
2018-09-30T12:52:47.382Z,1.50
2018-09-30T12:55:16.533Z,1.50
2018-09-30T12:57:45.695Z,1.60
2018-09-30T13:00:14.793Z,1.60
2018-09-30T13:02:44.009Z,1.70
2018-09-30T13:05:13.177Z,1.43
2018-09-30T13:07:42.363Z,1.40
2018-09-30T13:10:11.471Z,1.60
2018-09-30T13:12:40.653Z,1.47
2018-09-30T13:15:09.701Z,1.60
2018-09-30T13:17:38.874Z,1.33
2018-09-30T13:20:08.091Z,1.53
2018-09-30T13:22:37.297Z,1.60
2018-09-30T13:25:06.514Z,1.57
2018-09-30T13:27:37.302Z,1.47
2018-09-30T13:30:06.956Z,1.63
2018-09-30T13:32:36.136Z,1.40
2018-09-30T13:35:05.928Z,1.53
2018-09-30T13:37:35.236Z,1.30
2018-09-30T13:40:04.773Z,1.53
2018-09-30T13:42:33.967Z,1.50
2018-09-30T13:45:03.982Z,1.53
2018-09-30T13:47:33.359Z,1.37
2018-09-30T13:50:03.073Z,1.40
2018-09-30T13:52:33.914Z,1.27
2018-09-30T13:55:03.098Z,1.50
2018-09-30T13:57:32.286Z,1.63
2018-09-30T14:00:01.435Z,1.40
2018-09-30T14:02:30.643Z,1.60
2018-09-30T14:04:59.800Z,1.90
2018-09-30T14:07:28.973Z,1.60
2018-09-30T14:09:58.125Z,1.37
2018-09-30T14:12:28.047Z,1.53
2018-09-30T14:14:58.027Z,1.43
2018-09-30T14:17:28.197Z,1.40
2018-09-30T14:19:57.448Z,1.33
2018-09-30T14:22:27.106Z,1.60
2018-09-30T14:24:56.367Z,1.73
2018-09-30T14:27:25.708Z,1.53
2018-09-30T14:29:54.894Z,1.47
2018-09-30T14:32:24.105Z,1.27
2018-09-30T14:34:53.213Z,1.40
2018-09-30T14:37:22.382Z,1.33
2018-09-30T14:39:51.543Z,1.97
2018-09-30T14:42:20.763Z,1.80
2018-09-30T14:44:49.921Z,1.30
2018-09-30T14:47:19.183Z,1.47
2018-09-30T14:49:48.312Z,1.50
2018-09-30T14:52:17.447Z,1.70
2018-09-30T14:54:46.603Z,1.60
2018-09-30T14:57:15.751Z,1.40
2018-09-30T14:59:45.002Z,1.47
2018-09-30T15:02:14.125Z,1.83
2018-09-30T15:04:43.270Z,1.53
2018-09-30T15:07:12.425Z,1.80
2018-09-30T15:09:41.616Z,1.60
2018-09-30T15:12:10.761Z,1.40
2018-09-30T15:14:39.941Z,1.27
2018-09-30T15:17:09.122Z,1.30
2018-09-30T15:19:38.401Z,1.40
2018-09-30T15:22:07.538Z,1.40
2018-09-30T15:24:36.715Z,1.63
2018-09-30T15:27:05.853Z,1.90
2018-09-30T15:29:35.021Z,1.73
2018-09-30T15:32:04.221Z,1.80
2018-09-30T15:34:33.394Z,1.60
2018-09-30T15:37:02.536Z,1.90
2018-09-30T15:39:31.725Z,1.47
2018-09-30T15:42:00.911Z,1.60
2018-09-30T15:44:30.114Z,1.97
2018-09-30T15:46:59.532Z,1.70
2018-09-30T15:49:28.697Z,1.50
2018-09-30T15:51:57.966Z,1.30
2018-09-30T15:54:27.113Z,1.43
2018-09-30T15:56:56.256Z,1.90
2018-09-30T15:59:25.524Z,1.77
2018-09-30T16:01:55.264Z,1.30
2018-09-30T16:04:24.375Z,1.60
2018-09-30T16:06:53.521Z,1.53
2018-09-30T16:09:22.691Z,1.80
2018-09-30T16:11:51.824Z,1.60
2018-09-30T16:14:20.996Z,1.67
2018-09-30T16:16:50.129Z,1.20
2018-09-30T16:19:19.317Z,1.67
2018-09-30T16:21:48.607Z,1.60
2018-09-30T16:24:17.788Z,1.57
2018-09-30T16:26:46.944Z,1.80
2018-09-30T16:29:16.116Z,1.60
2018-09-30T16:31:45.253Z,1.50
2018-09-30T16:34:14.433Z,1.57
2018-09-30T16:36:43.634Z,1.50
2018-09-30T16:39:12.878Z,1.50
2018-09-30T16:41:42.222Z,1.33
2018-09-30T16:44:11.389Z,1.43
2018-09-30T16:46:40.571Z,1.67
2018-09-30T16:49:09.741Z,1.43
2018-09-30T16:51:39.166Z,2.97
2018-09-30T16:54:08.464Z,3.20
2018-09-30T16:56:37.622Z,2.80
2018-09-30T16:59:06.920Z,2.63
2018-09-30T17:01:36.057Z,2.90
2018-09-30T17:04:05.254Z,2.83
2018-09-30T17:06:34.461Z,2.73
2018-09-30T17:09:04.684Z,3.10
2018-09-30T17:11:33.821Z,2.93
2018-09-30T17:14:03.050Z,2.70
2018-09-30T17:16:32.198Z,2.90
2018-09-30T17:19:01.970Z,2.93
2018-09-30T17:21:31.119Z,3.13
2018-09-30T17:24:00.311Z,2.50
2018-09-30T17:26:29.465Z,2.73
2018-09-30T17:28:58.646Z,3.07
2018-09-30T17:31:27.798Z,3.50
2018-09-30T17:33:56.941Z,3.20
2018-09-30T17:36:26.196Z,3.07
2018-09-30T17:38:55.527Z,3.23
2018-09-30T17:41:24.686Z,2.77
2018-09-30T17:43:53.886Z,2.90
2018-09-30T17:46:23.379Z,2.40
2018-09-30T17:48:52.544Z,2.57
2018-09-30T17:51:21.660Z,3.03
2018-09-30T17:53:50.825Z,2.27
2018-09-30T17:56:19.987Z,2.47
2018-09-30T17:58:49.131Z,2.17
2018-09-30T18:01:18.251Z,2.37
2018-09-30T18:03:47.372Z,2.53
2018-09-30T18:06:16.637Z,2.93
2018-09-30T18:08:45.764Z,2.80
2018-09-30T18:11:14.933Z,2.77
2018-09-30T18:13:44.119Z,2.43
2018-09-30T18:16:13.306Z,2.20
2018-09-30T18:18:42.553Z,2.80
2018-09-30T18:21:11.711Z,2.70
2018-09-30T18:23:40.967Z,3.03
2018-09-30T18:26:10.102Z,3.00
2018-09-30T18:28:39.247Z,2.67
2018-09-30T18:31:08.636Z,3.57
2018-09-30T18:33:37.790Z,3.03
2018-09-30T18:36:06.989Z,3.37
2018-09-30T18:38:36.146Z,3.67
2018-09-30T18:41:05.338Z,4.70
2018-09-30T18:43:34.512Z,4.63
2018-09-30T18:46:03.641Z,4.67
2018-09-30T18:48:32.906Z,3.83
2018-09-30T18:51:02.139Z,3.23
2018-09-30T18:53:31.287Z,2.83
2018-09-30T18:56:00.503Z,3.33
2018-09-30T18:58:29.610Z,3.20
2018-09-30T19:00:58.883Z,2.50
2018-09-30T19:03:28.043Z,2.97
2018-09-30T19:05:57.340Z,2.93
2018-09-30T19:08:26.520Z,3.07
2018-09-30T19:10:55.720Z,4.23
2018-09-30T19:13:24.953Z,3.57
2018-09-30T19:15:54.222Z,3.57
2018-09-30T19:18:23.358Z,2.87
2018-09-30T19:20:52.546Z,3.10
2018-09-30T19:23:21.808Z,3.07
2018-09-30T19:25:51.093Z,3.40
2018-09-30T19:28:20.414Z,2.90
2018-09-30T19:30:49.635Z,3.43
2018-09-30T19:33:18.868Z,2.70
2018-09-30T19:35:48.088Z,3.10
2018-09-30T19:38:17.613Z,3.07
2018-09-30T19:40:46.826Z,3.63
2018-09-30T19:43:16.339Z,3.43
2018-09-30T19:45:45.881Z,3.87
2018-09-30T19:48:15.115Z,3.80
2018-09-30T19:50:44.338Z,3.60
2018-09-30T19:53:13.581Z,4.07
2018-09-30T19:55:42.741Z,3.77
2018-09-30T19:58:12.395Z,3.50
2018-09-30T20:00:41.787Z,3.80
2018-09-30T20:03:11.237Z,3.57
2018-09-30T20:05:40.663Z,3.23
2018-09-30T20:08:10.062Z,2.67
2018-09-30T20:10:39.384Z,3.23
2018-09-30T20:13:08.536Z,2.80
2018-09-30T20:15:37.701Z,3.10
2018-09-30T20:18:06.945Z,3.10
2018-09-30T20:20:36.143Z,3.20
2018-09-30T20:23:05.294Z,3.13
2018-09-30T20:25:34.562Z,3.30
2018-09-30T20:28:03.768Z,2.97
2018-09-30T20:30:32.936Z,3.50
2018-09-30T20:33:02.095Z,3.10
2018-09-30T20:35:31.261Z,3.00
2018-09-30T20:38:00.435Z,3.60
2018-09-30T20:40:29.563Z,3.30
2018-09-30T20:42:58.745Z,3.57
2018-09-30T20:45:27.927Z,3.23
2018-09-30T20:47:57.118Z,3.23
2018-09-30T20:50:26.420Z,2.83
2018-09-30T20:52:55.570Z,3.07
2018-09-30T20:55:24.772Z,3.10
2018-09-30T20:57:53.937Z,3.20
2018-09-30T21:00:23.148Z,3.00
2018-09-30T21:02:52.385Z,3.37
2018-09-30T21:05:31.286Z,3.33
2018-09-30T21:08:00.454Z,3.97
2018-09-30T21:10:29.775Z,3.67
2018-09-30T21:12:58.984Z,4.20
2018-09-30T21:15:28.152Z,4.33
2018-09-30T21:17:57.371Z,4.33
2018-09-30T21:20:26.535Z,4.10
2018-09-30T21:22:55.727Z,4.00
2018-09-30T21:25:24.880Z,4.00
2018-09-30T21:27:53.982Z,3.40
2018-09-30T21:30:23.135Z,3.30
2018-09-30T21:32:52.334Z,3.40
2018-09-30T21:35:21.532Z,3.27
2018-09-30T21:37:50.751Z,3.17
2018-09-30T21:40:19.885Z,3.00
2018-09-30T21:42:49.077Z,3.07
2018-09-30T21:45:18.231Z,2.70
2018-09-30T21:47:47.436Z,2.77
2018-09-30T21:50:16.592Z,2.73
2018-09-30T21:52:45.781Z,2.83
2018-09-30T21:55:14.920Z,1.93
2018-09-30T21:57:45.265Z,2.40
2018-09-30T22:00:18.535Z,2.33
2018-09-30T22:02:47.727Z,2.13
2018-09-30T22:05:16.880Z,2.40
2018-09-30T22:07:46.082Z,2.27
2018-09-30T22:10:15.265Z,2.47
2018-09-30T22:12:44.441Z,2.40
2018-09-30T22:15:13.634Z,2.30
2018-09-30T22:17:42.856Z,2.90
2018-09-30T22:20:12.035Z,2.30
2018-09-30T22:22:41.476Z,2.50
2018-09-30T22:25:10.634Z,2.17
2018-09-30T22:27:39.835Z,2.90
2018-09-30T22:30:09.016Z,2.50
